sensor_id;sensor_type;location;lat;lon;timestamp;P1;durP1;ratioP1;P2;durP2;ratioP2
14611;SDS011;7392;52.078;11.650;2023-03-31T00:00:50;3.40;;;1.40;;
14611;SDS011;7392;52.078;11.650;2023-03-31T00:03:19;3.23;;;1.20;;
14611;SDS011;7392;52.078;11.650;2023-03-31T00:05:53;3.67;;;1.20;;
14611;SDS011;7392;52.078;11.650;2023-03-31T00:08:24;4.40;;;1.77;;
14611;SDS011;7392;52.078;11.650;2023-03-31T00:10:57;4.73;;;1.50;;
14611;SDS011;7392;52.078;11.650;2023-03-31T00:13:25;4.43;;;1.50;;
14611;SDS011;7392;52.078;11.650;2023-03-31T00:15:55;2.63;;;1.30;;
14611;SDS011;7392;52.078;11.650;2023-03-31T00:18:23;3.50;;;1.40;;
14611;SDS011;7392;52.078;11.650;2023-03-31T00:20:52;3.40;;;1.37;;
14611;SDS011;7392;52.078;11.650;2023-03-31T00:23:20;5.53;;;1.60;;
14611;SDS011;7392;52.078;11.650;2023-03-31T00:25:54;3.57;;;1.33;;
14611;SDS011;7392;52.078;11.650;2023-03-31T00:28:22;2.83;;;1.27;;
14611;SDS011;7392;52.078;11.650;2023-03-31T00:30:50;4.20;;;1.60;;
14611;SDS011;7392;52.078;11.650;2023-03-31T00:33:19;3.10;;;1.23;;
14611;SDS011;7392;52.078;11.650;2023-03-31T00:35:49;4.90;;;1.23;;
14611;SDS011;7392;52.078;11.650;2023-03-31T00:38:18;1.50;;;1.00;;
14611;SDS011;7392;52.078;11.650;2023-03-31T00:40:48;2.90;;;1.60;;
14611;SDS011;7392;52.078;11.650;2023-03-31T00:43:30;3.83;;;1.50;;
14611;SDS011;7392;52.078;11.650;2023-03-31T00:46:06;6.47;;;1.90;;
14611;SDS011;7392;52.078;11.650;2023-03-31T00:48:41;3.03;;;1.40;;
14611;SDS011;7392;52.078;11.650;2023-03-31T00:51:14;4.03;;;1.30;;
14611;SDS011;7392;52.078;11.650;2023-03-31T00:53:42;3.70;;;1.20;;
14611;SDS011;7392;52.078;11.650;2023-03-31T00:56:12;3.23;;;1.20;;
14611;SDS011;7392;52.078;11.650;2023-03-31T00:58:43;4.53;;;1.40;;
14611;SDS011;7392;52.078;11.650;2023-03-31T01:01:13;3.63;;;1.50;;
14611;SDS011;7392;52.078;11.650;2023-03-31T01:03:44;3.60;;;1.60;;
14611;SDS011;7392;52.078;11.650;2023-03-31T01:06:13;3.50;;;1.10;;
14611;SDS011;7392;52.078;11.650;2023-03-31T01:08:45;2.10;;;1.20;;
14611;SDS011;7392;52.078;11.650;2023-03-31T01:11:16;2.53;;;1.20;;
14611;SDS011;7392;52.078;11.650;2023-03-31T01:13:47;2.30;;;1.40;;
14611;SDS011;7392;52.078;11.650;2023-03-31T01:16:21;2.60;;;1.23;;
14611;SDS011;7392;52.078;11.650;2023-03-31T01:18:49;1.73;;;1.07;;
14611;SDS011;7392;52.078;11.650;2023-03-31T01:21:38;3.67;;;1.17;;
14611;SDS011;7392;52.078;11.650;2023-03-31T01:27:42;1.80;;;1.00;;
14611;SDS011;7392;52.078;11.650;2023-03-31T01:30:38;2.73;;;1.00;;
14611;SDS011;7392;52.078;11.650;2023-03-31T01:39:51;2.47;;;1.00;;
14611;SDS011;7392;52.078;11.650;2023-03-31T01:42:27;3.97;;;1.20;;
14611;SDS011;7392;52.078;11.650;2023-03-31T01:45:06;3.20;;;1.30;;
14611;SDS011;7392;52.078;11.650;2023-03-31T01:47:44;3.43;;;1.27;;
14611;SDS011;7392;52.078;11.650;2023-03-31T01:50:17;2.50;;;1.30;;
14611;SDS011;7392;52.078;11.650;2023-03-31T01:52:54;4.37;;;1.50;;
14611;SDS011;7392;52.078;11.650;2023-03-31T01:55:28;2.93;;;1.40;;
14611;SDS011;7392;52.078;11.650;2023-03-31T01:58:02;2.57;;;1.20;;
14611;SDS011;7392;52.078;11.650;2023-03-31T02:00:35;2.57;;;1.57;;
14611;SDS011;7392;52.078;11.650;2023-03-31T02:03:08;4.07;;;1.40;;
14611;SDS011;7392;52.078;11.650;2023-03-31T02:05:43;3.17;;;1.40;;
14611;SDS011;7392;52.078;11.650;2023-03-31T02:08:14;4.70;;;1.57;;
14611;SDS011;7392;52.078;11.650;2023-03-31T02:10:48;2.90;;;1.40;;
14611;SDS011;7392;52.078;11.650;2023-03-31T02:13:17;2.70;;;1.30;;
14611;SDS011;7392;52.078;11.650;2023-03-31T02:15:48;3.03;;;1.47;;
14611;SDS011;7392;52.078;11.650;2023-03-31T02:18:21;3.27;;;1.50;;
14611;SDS011;7392;52.078;11.650;2023-03-31T02:20:52;2.97;;;1.50;;
14611;SDS011;7392;52.078;11.650;2023-03-31T02:23:23;4.50;;;1.60;;
14611;SDS011;7392;52.078;11.650;2023-03-31T02:25:56;4.47;;;1.60;;
14611;SDS011;7392;52.078;11.650;2023-03-31T02:28:29;2.53;;;1.43;;
14611;SDS011;7392;52.078;11.650;2023-03-31T02:31:02;4.27;;;1.53;;
14611;SDS011;7392;52.078;11.650;2023-03-31T02:33:34;5.00;;;2.00;;
14611;SDS011;7392;52.078;11.650;2023-03-31T02:36:03;4.87;;;1.33;;
14611;SDS011;7392;52.078;11.650;2023-03-31T02:38:34;2.80;;;1.10;;
14611;SDS011;7392;52.078;11.650;2023-03-31T02:41:07;3.13;;;1.30;;
14611;SDS011;7392;52.078;11.650;2023-03-31T02:43:36;4.80;;;1.63;;
14611;SDS011;7392;52.078;11.650;2023-03-31T02:46:04;3.63;;;1.40;;
14611;SDS011;7392;52.078;11.650;2023-03-31T02:48:36;2.43;;;1.40;;
14611;SDS011;7392;52.078;11.650;2023-03-31T02:54:31;2.57;;;1.37;;
14611;SDS011;7392;52.078;11.650;2023-03-31T02:57:32;2.13;;;1.30;;
14611;SDS011;7392;52.078;11.650;2023-03-31T03:00:16;4.87;;;1.60;;
14611;SDS011;7392;52.078;11.650;2023-03-31T03:02:58;2.93;;;1.50;;
14611;SDS011;7392;52.078;11.650;2023-03-31T03:05:40;3.30;;;1.37;;
14611;SDS011;7392;52.078;11.650;2023-03-31T03:08:36;3.10;;;1.30;;
14611;SDS011;7392;52.078;11.650;2023-03-31T03:11:23;3.37;;;1.43;;
14611;SDS011;7392;52.078;11.650;2023-03-31T03:13:59;2.93;;;1.70;;
14611;SDS011;7392;52.078;11.650;2023-03-31T03:16:34;2.03;;;1.23;;
14611;SDS011;7392;52.078;11.650;2023-03-31T03:19:06;1.87;;;1.10;;
14611;SDS011;7392;52.078;11.650;2023-03-31T03:21:34;2.63;;;1.10;;
14611;SDS011;7392;52.078;11.650;2023-03-31T03:24:02;2.30;;;1.30;;
14611;SDS011;7392;52.078;11.650;2023-03-31T03:26:30;3.03;;;1.23;;
14611;SDS011;7392;52.078;11.650;2023-03-31T03:29:01;3.57;;;1.50;;
14611;SDS011;7392;52.078;11.650;2023-03-31T03:31:29;3.37;;;1.37;;
14611;SDS011;7392;52.078;11.650;2023-03-31T03:33:58;1.90;;;1.23;;
14611;SDS011;7392;52.078;11.650;2023-03-31T03:36:27;5.00;;;1.33;;
14611;SDS011;7392;52.078;11.650;2023-03-31T03:38:54;2.77;;;1.30;;
14611;SDS011;7392;52.078;11.650;2023-03-31T03:41:22;2.53;;;1.30;;
14611;SDS011;7392;52.078;11.650;2023-03-31T03:43:50;2.27;;;1.30;;
14611;SDS011;7392;52.078;11.650;2023-03-31T03:46:19;1.33;;;1.00;;
14611;SDS011;7392;52.078;11.650;2023-03-31T03:48:46;2.63;;;1.30;;
14611;SDS011;7392;52.078;11.650;2023-03-31T03:51:14;2.57;;;1.13;;
14611;SDS011;7392;52.078;11.650;2023-03-31T03:53:42;3.20;;;1.00;;
14611;SDS011;7392;52.078;11.650;2023-03-31T03:56:10;4.07;;;1.50;;
14611;SDS011;7392;52.078;11.650;2023-03-31T03:58:37;4.27;;;1.40;;
14611;SDS011;7392;52.078;11.650;2023-03-31T04:01:05;5.37;;;1.60;;
14611;SDS011;7392;52.078;11.650;2023-03-31T04:03:34;3.67;;;1.40;;
14611;SDS011;7392;52.078;11.650;2023-03-31T04:06:02;3.27;;;1.30;;
14611;SDS011;7392;52.078;11.650;2023-03-31T04:08:30;6.17;;;1.50;;
14611;SDS011;7392;52.078;11.650;2023-03-31T04:10:58;3.40;;;1.60;;
14611;SDS011;7392;52.078;11.650;2023-03-31T04:13:25;2.77;;;1.30;;
14611;SDS011;7392;52.078;11.650;2023-03-31T04:15:53;6.37;;;1.63;;
14611;SDS011;7392;52.078;11.650;2023-03-31T04:18:21;4.83;;;1.60;;
14611;SDS011;7392;52.078;11.650;2023-03-31T04:20:50;4.10;;;1.53;;
14611;SDS011;7392;52.078;11.650;2023-03-31T04:23:29;2.70;;;1.40;;
14611;SDS011;7392;52.078;11.650;2023-03-31T04:25:58;4.67;;;1.43;;
14611;SDS011;7392;52.078;11.650;2023-03-31T04:28:30;5.20;;;1.77;;
14611;SDS011;7392;52.078;11.650;2023-03-31T04:31:00;4.30;;;1.80;;
14611;SDS011;7392;52.078;11.650;2023-03-31T04:33:29;7.00;;;1.70;;
14611;SDS011;7392;52.078;11.650;2023-03-31T04:36:05;4.73;;;1.70;;
14611;SDS011;7392;52.078;11.650;2023-03-31T04:38:54;5.10;;;1.67;;
14611;SDS011;7392;52.078;11.650;2023-03-31T04:41:23;3.90;;;1.37;;
14611;SDS011;7392;52.078;11.650;2023-03-31T04:43:52;5.13;;;1.70;;
14611;SDS011;7392;52.078;11.650;2023-03-31T04:46:20;2.83;;;1.40;;
14611;SDS011;7392;52.078;11.650;2023-03-31T04:48:48;1.70;;;1.03;;
14611;SDS011;7392;52.078;11.650;2023-03-31T04:51:18;1.97;;;1.10;;
14611;SDS011;7392;52.078;11.650;2023-03-31T04:53:46;3.27;;;1.40;;
14611;SDS011;7392;52.078;11.650;2023-03-31T04:56:16;2.40;;;1.47;;
14611;SDS011;7392;52.078;11.650;2023-03-31T04:58:45;2.23;;;1.40;;
14611;SDS011;7392;52.078;11.650;2023-03-31T05:01:13;5.43;;;1.80;;
14611;SDS011;7392;52.078;11.650;2023-03-31T05:03:44;2.20;;;1.50;;
14611;SDS011;7392;52.078;11.650;2023-03-31T05:06:13;2.10;;;1.20;;
14611;SDS011;7392;52.078;11.650;2023-03-31T05:08:43;2.13;;;1.20;;
14611;SDS011;7392;52.078;11.650;2023-03-31T05:11:11;3.13;;;1.30;;
14611;SDS011;7392;52.078;11.650;2023-03-31T05:13:39;2.27;;;1.33;;
14611;SDS011;7392;52.078;11.650;2023-03-31T05:16:07;3.60;;;1.60;;
14611;SDS011;7392;52.078;11.650;2023-03-31T05:18:37;3.17;;;1.40;;
14611;SDS011;7392;52.078;11.650;2023-03-31T05:21:09;2.77;;;1.40;;
14611;SDS011;7392;52.078;11.650;2023-03-31T05:23:38;2.17;;;1.17;;
14611;SDS011;7392;52.078;11.650;2023-03-31T05:26:12;2.13;;;1.20;;
14611;SDS011;7392;52.078;11.650;2023-03-31T05:28:40;2.03;;;1.20;;
14611;SDS011;7392;52.078;11.650;2023-03-31T05:31:10;1.20;;;0.90;;
14611;SDS011;7392;52.078;11.650;2023-03-31T05:33:39;2.03;;;1.20;;
14611;SDS011;7392;52.078;11.650;2023-03-31T05:36:08;1.90;;;1.07;;
14611;SDS011;7392;52.078;11.650;2023-03-31T05:38:44;3.60;;;1.50;;
14611;SDS011;7392;52.078;11.650;2023-03-31T05:41:14;3.23;;;1.50;;
14611;SDS011;7392;52.078;11.650;2023-03-31T05:43:42;4.10;;;1.47;;
14611;SDS011;7392;52.078;11.650;2023-03-31T05:46:10;2.43;;;1.47;;
14611;SDS011;7392;52.078;11.650;2023-03-31T05:48:38;3.57;;;1.50;;
14611;SDS011;7392;52.078;11.650;2023-03-31T05:51:06;5.67;;;2.27;;
14611;SDS011;7392;52.078;11.650;2023-03-31T05:53:34;4.73;;;1.90;;
14611;SDS011;7392;52.078;11.650;2023-03-31T05:56:04;4.50;;;1.60;;
14611;SDS011;7392;52.078;11.650;2023-03-31T05:58:38;3.40;;;1.60;;
14611;SDS011;7392;52.078;11.650;2023-03-31T06:01:07;3.60;;;1.53;;
14611;SDS011;7392;52.078;11.650;2023-03-31T06:03:38;3.90;;;1.60;;
14611;SDS011;7392;52.078;11.650;2023-03-31T06:06:08;4.03;;;1.53;;
14611;SDS011;7392;52.078;11.650;2023-03-31T06:08:38;6.00;;;1.80;;
14611;SDS011;7392;52.078;11.650;2023-03-31T06:11:07;5.13;;;1.87;;
14611;SDS011;7392;52.078;11.650;2023-03-31T06:13:39;2.93;;;1.53;;
14611;SDS011;7392;52.078;11.650;2023-03-31T06:16:08;5.43;;;2.27;;
14611;SDS011;7392;52.078;11.650;2023-03-31T06:18:37;5.10;;;1.80;;
14611;SDS011;7392;52.078;11.650;2023-03-31T06:21:06;5.37;;;2.23;;
14611;SDS011;7392;52.078;11.650;2023-03-31T06:23:34;4.90;;;1.90;;
14611;SDS011;7392;52.078;11.650;2023-03-31T06:26:03;6.33;;;1.90;;
14611;SDS011;7392;52.078;11.650;2023-03-31T06:28:33;4.90;;;2.10;;
14611;SDS011;7392;52.078;11.650;2023-03-31T06:31:04;4.37;;;2.00;;
14611;SDS011;7392;52.078;11.650;2023-03-31T06:33:33;5.87;;;1.60;;
14611;SDS011;7392;52.078;11.650;2023-03-31T06:36:02;5.90;;;1.87;;
14611;SDS011;7392;52.078;11.650;2023-03-31T06:38:33;3.00;;;1.60;;
14611;SDS011;7392;52.078;11.650;2023-03-31T06:41:03;4.43;;;1.67;;
14611;SDS011;7392;52.078;11.650;2023-03-31T06:43:32;4.83;;;1.70;;
14611;SDS011;7392;52.078;11.650;2023-03-31T06:46:00;5.97;;;1.87;;
14611;SDS011;7392;52.078;11.650;2023-03-31T06:48:29;4.23;;;1.50;;
14611;SDS011;7392;52.078;11.650;2023-03-31T06:50:58;2.83;;;1.40;;
14611;SDS011;7392;52.078;11.650;2023-03-31T06:53:26;4.93;;;2.00;;
14611;SDS011;7392;52.078;11.650;2023-03-31T06:55:54;8.83;;;2.33;;
14611;SDS011;7392;52.078;11.650;2023-03-31T06:58:22;5.57;;;1.90;;
14611;SDS011;7392;52.078;11.650;2023-03-31T07:00:51;4.03;;;2.13;;
14611;SDS011;7392;52.078;11.650;2023-03-31T07:03:19;3.77;;;1.50;;
14611;SDS011;7392;52.078;11.650;2023-03-31T07:05:52;4.17;;;1.50;;
14611;SDS011;7392;52.078;11.650;2023-03-31T07:08:22;4.30;;;1.67;;
14611;SDS011;7392;52.078;11.650;2023-03-31T07:10:52;4.90;;;1.70;;
14611;SDS011;7392;52.078;11.650;2023-03-31T07:13:23;6.40;;;1.93;;
14611;SDS011;7392;52.078;11.650;2023-03-31T07:15:51;4.33;;;1.63;;
14611;SDS011;7392;52.078;11.650;2023-03-31T07:18:20;4.80;;;2.03;;
14611;SDS011;7392;52.078;11.650;2023-03-31T07:20:53;4.00;;;1.57;;
14611;SDS011;7392;52.078;11.650;2023-03-31T07:23:20;5.27;;;1.73;;
14611;SDS011;7392;52.078;11.650;2023-03-31T07:25:48;5.67;;;1.53;;
14611;SDS011;7392;52.078;11.650;2023-03-31T07:28:16;5.67;;;1.90;;
14611;SDS011;7392;52.078;11.650;2023-03-31T07:30:43;4.70;;;1.57;;
14611;SDS011;7392;52.078;11.650;2023-03-31T07:33:11;5.30;;;1.73;;
14611;SDS011;7392;52.078;11.650;2023-03-31T07:35:40;4.73;;;1.77;;
14611;SDS011;7392;52.078;11.650;2023-03-31T07:38:09;2.70;;;1.33;;
14611;SDS011;7392;52.078;11.650;2023-03-31T07:40:38;3.83;;;1.60;;
14611;SDS011;7392;52.078;11.650;2023-03-31T07:43:07;4.23;;;1.60;;
14611;SDS011;7392;52.078;11.650;2023-03-31T07:45:37;6.33;;;1.93;;
14611;SDS011;7392;52.078;11.650;2023-03-31T07:48:05;6.00;;;1.93;;
14611;SDS011;7392;52.078;11.650;2023-03-31T07:50:33;3.63;;;1.60;;
14611;SDS011;7392;52.078;11.650;2023-03-31T07:53:05;4.97;;;1.53;;
14611;SDS011;7392;52.078;11.650;2023-03-31T07:55:34;4.97;;;1.50;;
14611;SDS011;7392;52.078;11.650;2023-03-31T07:58:01;4.40;;;2.10;;
14611;SDS011;7392;52.078;11.650;2023-03-31T08:00:29;3.20;;;1.60;;
14611;SDS011;7392;52.078;11.650;2023-03-31T08:02:57;3.57;;;1.47;;
14611;SDS011;7392;52.078;11.650;2023-03-31T08:05:25;6.50;;;1.53;;
14611;SDS011;7392;52.078;11.650;2023-03-31T08:07:54;6.07;;;1.50;;
14611;SDS011;7392;52.078;11.650;2023-03-31T08:10:22;4.43;;;1.60;;
14611;SDS011;7392;52.078;11.650;2023-03-31T08:12:53;3.80;;;1.70;;
14611;SDS011;7392;52.078;11.650;2023-03-31T08:15:21;4.53;;;1.63;;
14611;SDS011;7392;52.078;11.650;2023-03-31T08:17:49;4.60;;;1.60;;
14611;SDS011;7392;52.078;11.650;2023-03-31T08:20:17;2.27;;;1.30;;
14611;SDS011;7392;52.078;11.650;2023-03-31T08:22:45;4.40;;;1.60;;
14611;SDS011;7392;52.078;11.650;2023-03-31T08:25:13;3.97;;;1.67;;
14611;SDS011;7392;52.078;11.650;2023-03-31T08:27:41;4.17;;;1.73;;
14611;SDS011;7392;52.078;11.650;2023-03-31T08:30:11;4.00;;;1.60;;
14611;SDS011;7392;52.078;11.650;2023-03-31T08:32:39;3.07;;;1.40;;
14611;SDS011;7392;52.078;11.650;2023-03-31T08:35:07;4.33;;;1.63;;
14611;SDS011;7392;52.078;11.650;2023-03-31T08:37:35;4.40;;;1.50;;
14611;SDS011;7392;52.078;11.650;2023-03-31T08:40:03;4.90;;;1.87;;
14611;SDS011;7392;52.078;11.650;2023-03-31T08:42:35;6.57;;;1.50;;
14611;SDS011;7392;52.078;11.650;2023-03-31T08:45:14;2.73;;;1.40;;
14611;SDS011;7392;52.078;11.650;2023-03-31T08:47:48;2.50;;;1.63;;
14611;SDS011;7392;52.078;11.650;2023-03-31T08:50:20;3.00;;;1.40;;
14611;SDS011;7392;52.078;11.650;2023-03-31T08:52:54;5.10;;;1.60;;
14611;SDS011;7392;52.078;11.650;2023-03-31T08:55:30;3.10;;;1.60;;
14611;SDS011;7392;52.078;11.650;2023-03-31T08:58:07;3.17;;;1.60;;
14611;SDS011;7392;52.078;11.650;2023-03-31T09:00:42;3.97;;;1.80;;
14611;SDS011;7392;52.078;11.650;2023-03-31T09:03:17;6.53;;;1.97;;
14611;SDS011;7392;52.078;11.650;2023-03-31T09:05:52;5.00;;;1.93;;
14611;SDS011;7392;52.078;11.650;2023-03-31T09:08:30;3.00;;;1.70;;
14611;SDS011;7392;52.078;11.650;2023-03-31T09:11:06;4.17;;;1.53;;
14611;SDS011;7392;52.078;11.650;2023-03-31T09:13:55;2.63;;;1.33;;
14611;SDS011;7392;52.078;11.650;2023-03-31T09:16:29;3.17;;;1.57;;
14611;SDS011;7392;52.078;11.650;2023-03-31T09:19:02;5.90;;;2.07;;
14611;SDS011;7392;52.078;11.650;2023-03-31T09:21:30;6.77;;;2.10;;
14611;SDS011;7392;52.078;11.650;2023-03-31T09:24:02;5.97;;;2.10;;
14611;SDS011;7392;52.078;11.650;2023-03-31T09:26:37;5.50;;;1.90;;
14611;SDS011;7392;52.078;11.650;2023-03-31T09:29:10;6.13;;;1.83;;
14611;SDS011;7392;52.078;11.650;2023-03-31T09:31:45;4.33;;;1.97;;
14611;SDS011;7392;52.078;11.650;2023-03-31T09:34:14;4.60;;;1.50;;
14611;SDS011;7392;52.078;11.650;2023-03-31T09:36:45;8.47;;;2.67;;
14611;SDS011;7392;52.078;11.650;2023-03-31T09:39:13;5.37;;;2.70;;
14611;SDS011;7392;52.078;11.650;2023-03-31T09:41:42;6.53;;;2.60;;
14611;SDS011;7392;52.078;11.650;2023-03-31T09:44:15;7.30;;;3.23;;
14611;SDS011;7392;52.078;11.650;2023-03-31T09:46:51;7.30;;;2.27;;
14611;SDS011;7392;52.078;11.650;2023-03-31T09:49:20;5.23;;;1.87;;
14611;SDS011;7392;52.078;11.650;2023-03-31T09:51:51;5.13;;;2.03;;
14611;SDS011;7392;52.078;11.650;2023-03-31T09:54:30;4.10;;;1.90;;
14611;SDS011;7392;52.078;11.650;2023-03-31T09:57:12;8.17;;;2.00;;
14611;SDS011;7392;52.078;11.650;2023-03-31T09:59:41;5.50;;;2.13;;
14611;SDS011;7392;52.078;11.650;2023-03-31T10:02:23;6.33;;;1.90;;
14611;SDS011;7392;52.078;11.650;2023-03-31T10:05:00;5.27;;;1.90;;
14611;SDS011;7392;52.078;11.650;2023-03-31T10:07:28;4.83;;;1.80;;
14611;SDS011;7392;52.078;11.650;2023-03-31T10:09:56;4.90;;;1.50;;
14611;SDS011;7392;52.078;11.650;2023-03-31T10:12:24;5.53;;;1.70;;
14611;SDS011;7392;52.078;11.650;2023-03-31T10:15:01;3.37;;;1.33;;
14611;SDS011;7392;52.078;11.650;2023-03-31T10:17:40;6.00;;;1.90;;
14611;SDS011;7392;52.078;11.650;2023-03-31T10:20:26;3.57;;;1.50;;
14611;SDS011;7392;52.078;11.650;2023-03-31T10:23:01;4.83;;;1.60;;
14611;SDS011;7392;52.078;11.650;2023-03-31T10:25:31;3.83;;;1.57;;
14611;SDS011;7392;52.078;11.650;2023-03-31T10:28:01;3.27;;;1.60;;
14611;SDS011;7392;52.078;11.650;2023-03-31T10:30:32;3.67;;;1.47;;
14611;SDS011;7392;52.078;11.650;2023-03-31T10:33:08;3.90;;;1.83;;
14611;SDS011;7392;52.078;11.650;2023-03-31T10:35:48;4.30;;;1.63;;
14611;SDS011;7392;52.078;11.650;2023-03-31T10:38:22;3.37;;;1.40;;
14611;SDS011;7392;52.078;11.650;2023-03-31T10:40:53;2.33;;;1.37;;
14611;SDS011;7392;52.078;11.650;2023-03-31T10:43:24;4.00;;;1.80;;
14611;SDS011;7392;52.078;11.650;2023-03-31T10:45:53;3.60;;;1.67;;
14611;SDS011;7392;52.078;11.650;2023-03-31T10:48:24;3.63;;;1.60;;
14611;SDS011;7392;52.078;11.650;2023-03-31T10:50:55;2.90;;;1.57;;
14611;SDS011;7392;52.078;11.650;2023-03-31T10:53:26;3.17;;;1.83;;
14611;SDS011;7392;52.078;11.650;2023-03-31T10:56:03;5.57;;;1.80;;
14611;SDS011;7392;52.078;11.650;2023-03-31T10:58:53;3.83;;;1.60;;
14611;SDS011;7392;52.078;11.650;2023-03-31T11:01:35;2.17;;;1.40;;
14611;SDS011;7392;52.078;11.650;2023-03-31T11:04:30;3.37;;;1.70;;
14611;SDS011;7392;52.078;11.650;2023-03-31T11:07:12;3.77;;;1.70;;
14611;SDS011;7392;52.078;11.650;2023-03-31T11:09:51;2.33;;;1.27;;
14611;SDS011;7392;52.078;11.650;2023-03-31T11:12:29;2.70;;;1.40;;
14611;SDS011;7392;52.078;11.650;2023-03-31T11:15:07;3.03;;;1.70;;
14611;SDS011;7392;52.078;11.650;2023-03-31T11:17:48;2.57;;;1.60;;
14611;SDS011;7392;52.078;11.650;2023-03-31T11:20:29;1.93;;;1.73;;
14611;SDS011;7392;52.078;11.650;2023-03-31T11:23:06;3.63;;;1.67;;
14611;SDS011;7392;52.078;11.650;2023-03-31T11:25:46;2.70;;;1.20;;
14611;SDS011;7392;52.078;11.650;2023-03-31T11:28:25;2.00;;;1.00;;
14611;SDS011;7392;52.078;11.650;2023-03-31T11:31:05;4.53;;;1.97;;
14611;SDS011;7392;52.078;11.650;2023-03-31T11:33:47;2.43;;;2.23;;
14611;SDS011;7392;52.078;11.650;2023-03-31T11:36:29;1.67;;;1.20;;
14611;SDS011;7392;52.078;11.650;2023-03-31T11:39:11;1.27;;;1.00;;
14611;SDS011;7392;52.078;11.650;2023-03-31T11:41:49;1.57;;;1.00;;
14611;SDS011;7392;52.078;11.650;2023-03-31T11:44:18;1.43;;;0.90;;
14611;SDS011;7392;52.078;11.650;2023-03-31T11:46:50;1.87;;;1.00;;
14611;SDS011;7392;52.078;11.650;2023-03-31T11:49:22;1.43;;;1.03;;
14611;SDS011;7392;52.078;11.650;2023-03-31T11:51:54;1.37;;;0.93;;
14611;SDS011;7392;52.078;11.650;2023-03-31T11:54:26;1.70;;;1.03;;
14611;SDS011;7392;52.078;11.650;2023-03-31T11:56:57;1.77;;;1.10;;
14611;SDS011;7392;52.078;11.650;2023-03-31T11:59:29;2.77;;;1.30;;
14611;SDS011;7392;52.078;11.650;2023-03-31T12:02:00;1.57;;;1.37;;
14611;SDS011;7392;52.078;11.650;2023-03-31T12:04:37;1.70;;;1.00;;
14611;SDS011;7392;52.078;11.650;2023-03-31T12:07:12;1.83;;;1.20;;
14611;SDS011;7392;52.078;11.650;2023-03-31T12:09:50;1.10;;;1.00;;
14611;SDS011;7392;52.078;11.650;2023-03-31T12:12:21;1.30;;;1.20;;
14611;SDS011;7392;52.078;11.650;2023-03-31T12:14:54;1.10;;;1.00;;
14611;SDS011;7392;52.078;11.650;2023-03-31T12:17:29;2.20;;;1.00;;
14611;SDS011;7392;52.078;11.650;2023-03-31T12:19:58;1.40;;;0.80;;
14611;SDS011;7392;52.078;11.650;2023-03-31T12:22:34;1.27;;;1.00;;
14611;SDS011;7392;52.078;11.650;2023-03-31T12:25:07;1.67;;;0.90;;
14611;SDS011;7392;52.078;11.650;2023-03-31T12:27:41;1.50;;;0.80;;
14611;SDS011;7392;52.078;11.650;2023-03-31T12:30:10;1.83;;;1.00;;
14611;SDS011;7392;52.078;11.650;2023-03-31T12:32:42;1.47;;;0.77;;
14611;SDS011;7392;52.078;11.650;2023-03-31T12:35:15;1.20;;;0.73;;
14611;SDS011;7392;52.078;11.650;2023-03-31T12:38:05;1.73;;;0.80;;
14611;SDS011;7392;52.078;11.650;2023-03-31T12:40:45;1.03;;;0.70;;
14611;SDS011;7392;52.078;11.650;2023-03-31T12:43:32;2.27;;;0.80;;
14611;SDS011;7392;52.078;11.650;2023-03-31T12:46:21;1.77;;;0.70;;
14611;SDS011;7392;52.078;11.650;2023-03-31T12:49:03;1.37;;;0.70;;
14611;SDS011;7392;52.078;11.650;2023-03-31T12:54:39;1.33;;;0.90;;
14611;SDS011;7392;52.078;11.650;2023-03-31T12:57:24;0.67;;;0.50;;
14611;SDS011;7392;52.078;11.650;2023-03-31T13:00:14;0.80;;;0.73;;
14611;SDS011;7392;52.078;11.650;2023-03-31T13:02:48;0.80;;;0.60;;
14611;SDS011;7392;52.078;11.650;2023-03-31T13:11:18;0.83;;;0.60;;
14611;SDS011;7392;52.078;11.650;2023-03-31T13:13:54;1.00;;;0.70;;
14611;SDS011;7392;52.078;11.650;2023-03-31T13:16:27;0.50;;;0.50;;
14611;SDS011;7392;52.078;11.650;2023-03-31T13:18:59;0.93;;;0.63;;
14611;SDS011;7392;52.078;11.650;2023-03-31T13:21:28;0.80;;;0.50;;
14611;SDS011;7392;52.078;11.650;2023-03-31T13:23:58;2.67;;;0.70;;
14611;SDS011;7392;52.078;11.650;2023-03-31T13:26:41;2.37;;;0.90;;
14611;SDS011;7392;52.078;11.650;2023-03-31T13:29:21;0.77;;;0.77;;
14611;SDS011;7392;52.078;11.650;2023-03-31T13:34:48;1.73;;;0.80;;
14611;SDS011;7392;52.078;11.650;2023-03-31T13:37:27;1.40;;;0.80;;
14611;SDS011;7392;52.078;11.650;2023-03-31T13:40:24;1.30;;;0.77;;
14611;SDS011;7392;52.078;11.650;2023-03-31T13:43:14;1.87;;;0.97;;
14611;SDS011;7392;52.078;11.650;2023-03-31T13:46:05;1.43;;;1.00;;
14611;SDS011;7392;52.078;11.650;2023-03-31T13:48:46;1.10;;;0.90;;
14611;SDS011;7392;52.078;11.650;2023-03-31T13:51:34;1.40;;;1.00;;
14611;SDS011;7392;52.078;11.650;2023-03-31T14:00:22;1.83;;;1.30;;
14611;SDS011;7392;52.078;11.650;2023-03-31T14:06:04;1.57;;;1.10;;
14611;SDS011;7392;52.078;11.650;2023-03-31T14:08:45;1.13;;;1.03;;
14611;SDS011;7392;52.078;11.650;2023-03-31T14:11:21;1.67;;;0.90;;
14611;SDS011;7392;52.078;11.650;2023-03-31T14:14:00;1.20;;;1.03;;
14611;SDS011;7392;52.078;11.650;2023-03-31T14:16:32;1.17;;;0.83;;
14611;SDS011;7392;52.078;11.650;2023-03-31T14:19:08;2.23;;;1.20;;
14611;SDS011;7392;52.078;11.650;2023-03-31T14:21:57;1.87;;;1.37;;
14611;SDS011;7392;52.078;11.650;2023-03-31T14:24:33;2.50;;;1.10;;
14611;SDS011;7392;52.078;11.650;2023-03-31T14:27:07;1.57;;;1.20;;
14611;SDS011;7392;52.078;11.650;2023-03-31T14:29:46;3.03;;;1.70;;
14611;SDS011;7392;52.078;11.650;2023-03-31T14:32:24;3.43;;;1.93;;
14611;SDS011;7392;52.078;11.650;2023-03-31T14:35:03;4.57;;;2.20;;
14611;SDS011;7392;52.078;11.650;2023-03-31T14:37:44;2.93;;;2.03;;
14611;SDS011;7392;52.078;11.650;2023-03-31T14:40:12;3.90;;;2.43;;
14611;SDS011;7392;52.078;11.650;2023-03-31T14:42:43;2.87;;;1.80;;
14611;SDS011;7392;52.078;11.650;2023-03-31T14:45:16;2.70;;;1.90;;
14611;SDS011;7392;52.078;11.650;2023-03-31T14:47:55;3.07;;;1.67;;
14611;SDS011;7392;52.078;11.650;2023-03-31T14:50:28;1.97;;;1.40;;
14611;SDS011;7392;52.078;11.650;2023-03-31T14:52:58;2.03;;;1.30;;
14611;SDS011;7392;52.078;11.650;2023-03-31T14:55:27;2.73;;;1.50;;
14611;SDS011;7392;52.078;11.650;2023-03-31T14:58:20;2.67;;;1.57;;
14611;SDS011;7392;52.078;11.650;2023-03-31T15:00:51;1.97;;;1.10;;
14611;SDS011;7392;52.078;11.650;2023-03-31T15:03:23;2.10;;;1.40;;
14611;SDS011;7392;52.078;11.650;2023-03-31T15:05:55;1.40;;;1.10;;
14611;SDS011;7392;52.078;11.650;2023-03-31T15:08:26;1.90;;;1.33;;
14611;SDS011;7392;52.078;11.650;2023-03-31T15:10:56;2.20;;;1.50;;
14611;SDS011;7392;52.078;11.650;2023-03-31T15:13:39;2.70;;;1.40;;
14611;SDS011;7392;52.078;11.650;2023-03-31T15:16:18;3.13;;;1.90;;
14611;SDS011;7392;52.078;11.650;2023-03-31T15:18:53;4.03;;;1.77;;
14611;SDS011;7392;52.078;11.650;2023-03-31T15:21:30;1.93;;;1.30;;
14611;SDS011;7392;52.078;11.650;2023-03-31T15:24:03;2.73;;;1.57;;
14611;SDS011;7392;52.078;11.650;2023-03-31T15:26:43;1.97;;;1.20;;
14611;SDS011;7392;52.078;11.650;2023-03-31T15:29:15;3.27;;;1.40;;
14611;SDS011;7392;52.078;11.650;2023-03-31T15:31:54;3.47;;;1.60;;
14611;SDS011;7392;52.078;11.650;2023-03-31T15:34:54;2.57;;;1.40;;
14611;SDS011;7392;52.078;11.650;2023-03-31T15:37:50;2.57;;;1.60;;
14611;SDS011;7392;52.078;11.650;2023-03-31T15:40:38;2.40;;;1.30;;
14611;SDS011;7392;52.078;11.650;2023-03-31T15:43:15;1.50;;;1.40;;
14611;SDS011;7392;52.078;11.650;2023-03-31T15:46:04;1.57;;;1.20;;
14611;SDS011;7392;52.078;11.650;2023-03-31T15:48:34;2.27;;;1.47;;
14611;SDS011;7392;52.078;11.650;2023-03-31T15:51:30;1.73;;;1.20;;
14611;SDS011;7392;52.078;11.650;2023-03-31T15:54:10;2.03;;;0.90;;
14611;SDS011;7392;52.078;11.650;2023-03-31T15:56:59;1.03;;;0.90;;
14611;SDS011;7392;52.078;11.650;2023-03-31T15:59:47;1.63;;;1.20;;